createdAt,value
2022-09-30T00:01:13.130Z,7.15
2022-09-30T00:02:47.244Z,5.60
2022-09-30T00:04:22.724Z,5.72
2022-09-30T00:05:57.953Z,6.32
2022-09-30T00:07:30.666Z,5.18
2022-09-30T00:09:04.604Z,5.15
2022-09-30T00:10:37.378Z,4.43
2022-09-30T00:12:10.685Z,5.57
2022-09-30T00:13:44.244Z,5.20
2022-09-30T00:15:17.090Z,4.55
2022-09-30T00:16:50.259Z,5.78
2022-09-30T00:18:24.294Z,5.90
2022-09-30T00:19:57.010Z,6.25
2022-09-30T00:21:29.108Z,5.50
2022-09-30T00:23:01.818Z,6.63
2022-09-30T00:24:34.535Z,7.45
2022-09-30T00:26:10.125Z,5.65
2022-09-30T00:27:43.662Z,7.00
2022-09-30T00:29:16.390Z,7.60
2022-09-30T00:30:48.198Z,7.53
2022-09-30T00:32:21.591Z,6.57
2022-09-30T00:34:06.954Z,6.45
2022-09-30T00:35:39.925Z,5.25
2022-09-30T00:37:15.088Z,7.75
2022-09-30T00:38:47.812Z,6.45
2022-09-30T00:40:21.333Z,5.97
2022-09-30T00:42:00.302Z,5.97
2022-09-30T00:43:41.262Z,5.57
2022-09-30T00:45:14.780Z,8.52
2022-09-30T00:46:46.580Z,7.25
2022-09-30T00:48:21.760Z,8.10
2022-09-30T00:49:56.672Z,6.35
2022-09-30T00:51:33.631Z,7.10
2022-09-30T00:53:11.453Z,8.40
2022-09-30T00:54:43.304Z,9.15
2022-09-30T00:56:19.992Z,8.43
2022-09-30T00:57:51.901Z,6.90
2022-09-30T00:59:28.494Z,8.05
2022-09-30T01:01:02.700Z,6.80
2022-09-30T01:02:36.369Z,9.25
2022-09-30T01:04:13.300Z,7.82
2022-09-30T01:05:46.421Z,8.32
2022-09-30T01:07:20.621Z,8.00
2022-09-30T01:08:55.130Z,7.13
2022-09-30T01:10:27.825Z,7.85
2022-09-30T01:12:00.768Z,7.53
2022-09-30T01:13:35.527Z,7.53
2022-09-30T01:15:08.151Z,9.20
2022-09-30T01:16:51.776Z,9.30
2022-09-30T01:18:32.565Z,9.00
2022-09-30T01:20:34.460Z,6.88
2022-09-30T01:22:31.621Z,6.78
2022-09-30T01:24:41.344Z,6.82
2022-09-30T01:26:40.691Z,6.88
2022-09-30T01:28:35.963Z,7.22
2022-09-30T01:30:12.917Z,7.25
2022-09-30T01:31:53.334Z,7.70
2022-09-30T01:33:36.519Z,7.80
2022-09-30T01:35:21.615Z,6.75
2022-09-30T01:37:08.876Z,7.38
2022-09-30T01:38:49.589Z,6.95
2022-09-30T01:40:30.426Z,7.75
2022-09-30T01:42:10.991Z,8.38
2022-09-30T01:43:47.977Z,11.48
2022-09-30T01:45:29.678Z,12.45
2022-09-30T01:47:12.104Z,12.43
2022-09-30T01:48:50.691Z,9.18
2022-09-30T01:50:26.001Z,9.07
2022-09-30T01:52:04.787Z,9.65
2022-09-30T01:53:42.561Z,10.20
2022-09-30T01:55:21.567Z,11.82
2022-09-30T01:56:59.045Z,10.07
2022-09-30T01:58:40.757Z,11.13
2022-09-30T02:00:15.222Z,12.88
2022-09-30T02:01:53.114Z,11.23
2022-09-30T02:03:32.129Z,11.90
2022-09-30T02:05:10.064Z,10.70
2022-09-30T02:06:46.148Z,10.05
2022-09-30T02:08:23.125Z,8.43
2022-09-30T02:09:59.771Z,10.02
2022-09-30T02:11:36.431Z,11.85
2022-09-30T02:13:26.398Z,13.32
2022-09-30T02:15:03.717Z,9.75
2022-09-30T02:16:40.621Z,9.02
2022-09-30T02:18:19.731Z,8.95
2022-09-30T02:20:00.433Z,8.45
2022-09-30T02:21:39.361Z,7.63
2022-09-30T02:23:15.527Z,7.95
2022-09-30T02:24:52.889Z,6.90
2022-09-30T02:26:28.063Z,10.30
2022-09-30T02:28:05.184Z,7.90
2022-09-30T02:29:41.841Z,7.88
2022-09-30T02:31:17.002Z,8.43
2022-09-30T02:32:53.633Z,9.93
2022-09-30T02:34:31.252Z,9.55
2022-09-30T02:36:11.125Z,10.45
2022-09-30T02:37:46.578Z,10.63
2022-09-30T02:39:28.216Z,11.73
2022-09-30T02:41:07.170Z,7.65
2022-09-30T02:42:41.947Z,9.82
2022-09-30T02:44:15.578Z,9.43
2022-09-30T02:45:56.766Z,9.02
2022-09-30T02:47:40.881Z,13.32
2022-09-30T02:49:22.442Z,10.98
2022-09-30T02:51:03.881Z,9.48
2022-09-30T02:52:50.197Z,8.10
2022-09-30T02:54:31.565Z,10.13
2022-09-30T02:56:13.401Z,7.22
2022-09-30T02:57:57.417Z,8.63
2022-09-30T02:59:30.193Z,10.48
2022-09-30T03:01:03.779Z,10.05
2022-09-30T03:02:36.792Z,14.13
2022-09-30T03:04:12.218Z,9.88
2022-09-30T03:05:45.227Z,10.88
2022-09-30T03:07:18.593Z,12.05
2022-09-30T03:08:53.822Z,9.63
2022-09-30T03:10:26.692Z,11.15
2022-09-30T03:12:11.598Z,10.85
2022-09-30T03:14:32.025Z,12.00
2022-09-30T03:16:16.538Z,10.13
2022-09-30T03:18:03.739Z,12.40
2022-09-30T03:19:48.161Z,12.82
2022-09-30T03:21:39.822Z,10.18
2022-09-30T03:23:36.177Z,8.63
2022-09-30T03:25:20.674Z,9.82
2022-09-30T03:27:00.939Z,10.77
2022-09-30T03:28:37.240Z,12.43
2022-09-30T03:30:16.066Z,12.13
2022-09-30T03:32:03.978Z,10.05
2022-09-30T03:33:50.030Z,10.55
2022-09-30T03:35:31.876Z,10.00
2022-09-30T03:37:15.129Z,9.50
2022-09-30T03:38:53.573Z,10.07
2022-09-30T03:40:34.097Z,9.32
2022-09-30T03:42:12.100Z,11.18
2022-09-30T03:43:49.266Z,13.20
2022-09-30T03:45:28.995Z,11.32
2022-09-30T03:47:05.632Z,10.43
2022-09-30T03:48:39.463Z,10.25
2022-09-30T03:50:17.065Z,11.70
2022-09-30T03:51:51.055Z,10.10
2022-09-30T03:53:26.088Z,10.50
2022-09-30T03:55:01.129Z,9.35
2022-09-30T03:56:35.173Z,12.85
2022-09-30T03:58:07.969Z,10.25
2022-09-30T03:59:40.688Z,8.45
2022-09-30T04:01:21.242Z,9.52
2022-09-30T04:02:57.769Z,8.57
2022-09-30T04:04:30.735Z,9.55
2022-09-30T04:06:04.008Z,9.40
2022-09-30T04:07:36.939Z,9.32
2022-09-30T04:09:09.906Z,11.35
2022-09-30T04:10:43.709Z,8.63
2022-09-30T04:12:18.038Z,8.93
2022-09-30T04:13:50.785Z,9.05
2022-09-30T04:15:22.541Z,8.15
2022-09-30T04:16:55.262Z,11.57
2022-09-30T04:18:28.339Z,11.27
2022-09-30T04:20:01.241Z,14.18
2022-09-30T04:21:33.942Z,19.48
2022-09-30T04:23:06.679Z,25.08
2022-09-30T04:24:39.616Z,22.35
2022-09-30T04:26:14.628Z,17.33
2022-09-30T04:27:48.679Z,14.60
2022-09-30T04:29:21.433Z,14.57
2022-09-30T04:30:54.125Z,10.82
2022-09-30T04:32:26.873Z,11.32
2022-09-30T04:33:59.608Z,10.43
2022-09-30T04:35:32.606Z,8.52
2022-09-30T04:37:10.609Z,8.63
2022-09-30T04:38:43.843Z,10.00
2022-09-30T04:40:17.540Z,7.07
2022-09-30T04:41:50.491Z,9.88
2022-09-30T04:43:25.590Z,9.98
2022-09-30T04:44:57.918Z,7.72
2022-09-30T04:46:30.632Z,7.35
2022-09-30T04:48:03.364Z,7.90
2022-09-30T04:49:36.080Z,6.35
2022-09-30T04:51:08.938Z,6.18
2022-09-30T04:52:43.405Z,9.90
2022-09-30T04:54:16.512Z,8.88
2022-09-30T04:55:48.450Z,7.93
2022-09-30T04:57:21.207Z,8.43
2022-09-30T04:58:55.257Z,7.15
2022-09-30T05:00:28.023Z,6.80
2022-09-30T05:02:02.124Z,6.32
2022-09-30T05:03:35.611Z,7.97
2022-09-30T05:05:09.406Z,6.72
2022-09-30T05:06:42.132Z,6.45
2022-09-30T05:08:15.525Z,6.72
2022-09-30T05:09:48.240Z,6.22
2022-09-30T05:11:22.297Z,6.78
2022-09-30T05:12:54.098Z,7.57
2022-09-30T05:14:28.185Z,6.60
2022-09-30T05:16:01.058Z,5.95
2022-09-30T05:17:33.942Z,6.43
2022-09-30T05:19:06.708Z,6.88
2022-09-30T05:20:39.413Z,8.32
2022-09-30T05:22:13.974Z,6.10
2022-09-30T05:23:47.076Z,6.57
2022-09-30T05:25:19.769Z,7.65
2022-09-30T05:26:52.450Z,6.95
2022-09-30T05:28:25.875Z,9.02
2022-09-30T05:29:59.896Z,6.82
2022-09-30T05:31:32.653Z,8.13
2022-09-30T05:33:06.987Z,6.40
2022-09-30T05:34:39.922Z,6.00
2022-09-30T05:36:16.029Z,6.55
2022-09-30T05:37:47.780Z,7.35
2022-09-30T05:39:20.507Z,8.00
2022-09-30T05:40:54.371Z,6.68
2022-09-30T05:42:27.073Z,8.07
2022-09-30T05:44:01.223Z,8.65
2022-09-30T05:45:35.825Z,6.20
2022-09-30T05:47:11.523Z,6.65
2022-09-30T05:48:44.693Z,6.50
2022-09-30T05:50:20.510Z,7.95
2022-09-30T05:51:53.753Z,7.05
2022-09-30T05:53:26.502Z,6.07
2022-09-30T05:55:01.011Z,5.55
2022-09-30T05:56:34.538Z,5.35
2022-09-30T05:58:06.312Z,7.47
2022-09-30T05:59:38.999Z,5.28
2022-09-30T06:01:14.745Z,5.28
2022-09-30T06:02:51.687Z,4.70
2022-09-30T06:04:24.516Z,4.63
2022-09-30T06:05:57.842Z,7.35
2022-09-30T06:07:30.533Z,6.97
2022-09-30T06:09:03.284Z,9.95
2022-09-30T06:10:36.871Z,9.57
2022-09-30T06:12:10.056Z,10.93
2022-09-30T06:13:43.656Z,9.38
2022-09-30T06:15:16.556Z,12.40
2022-09-30T06:16:50.744Z,9.80
2022-09-30T06:18:23.592Z,11.90
2022-09-30T06:19:56.772Z,11.63
2022-09-30T06:21:29.860Z,13.65
2022-09-30T06:23:03.114Z,12.50
2022-09-30T06:24:35.818Z,10.18
2022-09-30T06:26:11.535Z,11.00
2022-09-30T06:27:45.530Z,7.75
2022-09-30T06:29:19.513Z,9.27
2022-09-30T06:30:52.228Z,8.48
2022-09-30T06:32:26.663Z,7.53
2022-09-30T06:33:59.363Z,8.77
2022-09-30T06:35:32.535Z,6.43
2022-09-30T06:37:06.028Z,6.30
2022-09-30T06:38:39.838Z,8.98
2022-09-30T06:40:12.792Z,5.70
2022-09-30T06:41:45.493Z,5.45
2022-09-30T06:43:18.593Z,6.07
2022-09-30T06:44:53.385Z,7.80
2022-09-30T06:46:30.967Z,7.53
2022-09-30T06:48:07.078Z,6.88
2022-09-30T06:49:48.693Z,6.80
2022-09-30T06:51:22.557Z,8.25
2022-09-30T06:52:59.143Z,5.80
2022-09-30T06:54:31.877Z,9.68
2022-09-30T06:56:04.975Z,5.25
2022-09-30T06:57:37.655Z,5.25
2022-09-30T06:59:10.343Z,6.80
2022-09-30T07:00:43.249Z,7.07
2022-09-30T07:02:16.083Z,10.43
2022-09-30T07:03:54.033Z,9.40
2022-09-30T07:05:27.429Z,10.77
2022-09-30T07:07:00.149Z,9.75
2022-09-30T07:08:34.670Z,9.25
2022-09-30T07:10:08.145Z,7.80
2022-09-30T07:11:40.934Z,11.38
2022-09-30T07:13:14.465Z,11.20
2022-09-30T07:14:47.798Z,9.35
2022-09-30T07:16:21.254Z,9.95
2022-09-30T07:17:54.819Z,7.82
2022-09-30T07:19:28.917Z,6.50
2022-09-30T07:21:01.648Z,6.53
2022-09-30T07:22:34.528Z,6.28
2022-09-30T07:24:09.217Z,6.38
2022-09-30T07:25:49.321Z,6.18
2022-09-30T07:27:22.208Z,9.20
2022-09-30T07:28:55.390Z,4.97
2022-09-30T07:30:28.214Z,4.18
2022-09-30T07:32:01.508Z,5.03
2022-09-30T07:33:35.488Z,5.28
2022-09-30T07:35:09.990Z,3.75
2022-09-30T07:36:42.837Z,4.53
2022-09-30T07:38:17.300Z,5.90
2022-09-30T07:39:50.256Z,3.93
2022-09-30T07:41:27.142Z,4.83
2022-09-30T07:43:00.262Z,7.57
2022-09-30T07:44:33.516Z,5.87
2022-09-30T07:46:07.684Z,4.40
2022-09-30T07:47:40.648Z,10.27
2022-09-30T07:49:24.377Z,5.43
2022-09-30T07:50:58.736Z,3.80
2022-09-30T07:52:31.450Z,4.20
2022-09-30T07:54:06.971Z,4.73
2022-09-30T07:55:39.688Z,4.73
2022-09-30T07:57:12.462Z,4.67
2022-09-30T07:58:44.716Z,4.10
2022-09-30T08:00:41.120Z,8.60
2022-09-30T08:02:15.906Z,5.80
2022-09-30T08:03:48.892Z,4.80
2022-09-30T08:05:21.623Z,6.10
2022-09-30T08:06:57.524Z,3.50
2022-09-30T08:08:30.248Z,6.43
2022-09-30T08:10:02.960Z,3.90
2022-09-30T08:11:37.184Z,3.40
2022-09-30T08:13:10.611Z,4.27
2022-09-30T08:14:44.700Z,4.80
2022-09-30T08:16:17.445Z,4.23
2022-09-30T08:17:50.174Z,5.13
2022-09-30T08:19:25.330Z,4.10
2022-09-30T08:20:58.497Z,4.30
2022-09-30T08:22:32.806Z,5.17
2022-09-30T08:24:05.763Z,5.73
2022-09-30T08:25:38.479Z,5.57
2022-09-30T08:27:11.262Z,6.40
2022-09-30T08:28:46.988Z,6.33
2022-09-30T08:30:19.784Z,10.83
2022-09-30T08:31:52.704Z,10.73
2022-09-30T08:33:25.533Z,9.20
2022-09-30T08:34:58.229Z,6.30
2022-09-30T08:36:31.431Z,6.47
2022-09-30T08:38:05.512Z,6.53
2022-09-30T08:39:38.610Z,9.40
2022-09-30T08:41:24.756Z,15.53
2022-09-30T08:43:11.290Z,7.57
2022-09-30T08:44:46.248Z,6.93
2022-09-30T08:46:31.047Z,5.97
2022-09-30T08:48:17.897Z,7.03
2022-09-30T08:50:01.394Z,8.23
2022-09-30T08:51:39.938Z,5.80
2022-09-30T08:53:21.358Z,6.10
2022-09-30T08:54:57.028Z,6.40
2022-09-30T08:56:32.405Z,6.33
2022-09-30T08:58:07.661Z,7.87
2022-09-30T08:59:46.669Z,6.57
2022-09-30T09:01:26.249Z,8.67
2022-09-30T09:03:03.029Z,7.47
2022-09-30T09:04:35.814Z,6.97
2022-09-30T09:06:21.453Z,7.37
2022-09-30T09:08:03.494Z,6.97
2022-09-30T09:09:52.238Z,7.07
2022-09-30T09:11:42.678Z,6.60
2022-09-30T09:13:35.515Z,8.20
2022-09-30T09:15:19.592Z,7.60
2022-09-30T09:17:03.524Z,8.47
2022-09-30T09:18:43.652Z,7.83
2022-09-30T09:20:20.186Z,8.00
2022-09-30T09:21:56.942Z,7.17
2022-09-30T09:23:32.974Z,10.67
2022-09-30T09:25:07.974Z,8.47
2022-09-30T09:26:40.680Z,8.67
2022-09-30T09:28:25.141Z,7.80
2022-09-30T09:30:10.914Z,7.67
2022-09-30T09:31:43.741Z,6.87
2022-09-30T09:33:22.901Z,7.00
2022-09-30T09:34:59.805Z,6.33
2022-09-30T09:36:42.031Z,6.83
2022-09-30T09:38:26.059Z,7.77
2022-09-30T09:40:07.736Z,7.97
2022-09-30T09:41:51.364Z,7.43
2022-09-30T09:43:38.299Z,7.40
2022-09-30T09:45:19.345Z,8.10
2022-09-30T09:46:56.837Z,8.33
2022-09-30T09:48:30.707Z,7.03
2022-09-30T09:50:14.892Z,7.77
2022-09-30T09:51:54.534Z,6.53
2022-09-30T09:53:46.129Z,8.83
2022-09-30T09:55:23.254Z,6.60
2022-09-30T09:56:57.325Z,6.83
2022-09-30T09:58:30.047Z,7.47
2022-09-30T10:00:19.253Z,9.97
2022-09-30T10:01:54.482Z,7.07
2022-09-30T10:03:27.986Z,10.77
2022-09-30T10:05:04.496Z,8.33
2022-09-30T10:06:44.969Z,7.37
2022-09-30T10:08:19.655Z,7.07
2022-09-30T10:10:09.980Z,7.20
2022-09-30T10:11:42.730Z,8.67
2022-09-30T10:13:22.528Z,7.70
2022-09-30T10:15:03.467Z,7.20
2022-09-30T10:16:38.162Z,8.47
2022-09-30T10:18:19.624Z,6.40
2022-09-30T10:19:54.976Z,10.03
2022-09-30T10:21:29.489Z,6.97
2022-09-30T10:23:09.513Z,5.93
2022-09-30T10:24:42.268Z,7.17
2022-09-30T10:26:19.660Z,7.07
2022-09-30T10:27:56.158Z,6.80
2022-09-30T10:29:32.548Z,8.83
2022-09-30T10:31:07.683Z,5.80
2022-09-30T10:32:40.946Z,6.87
2022-09-30T10:34:24.625Z,7.97
2022-09-30T10:36:10.469Z,7.73
2022-09-30T10:37:52.127Z,7.73
2022-09-30T10:39:27.446Z,6.20
2022-09-30T10:41:00.636Z,6.00
2022-09-30T10:42:35.733Z,5.50
2022-09-30T10:44:15.285Z,6.37
2022-09-30T10:46:07.011Z,8.77
2022-09-30T10:47:47.271Z,7.00
2022-09-30T10:49:27.997Z,5.30
2022-09-30T10:51:01.315Z,6.23
2022-09-30T10:52:36.288Z,4.97
2022-09-30T10:54:37.154Z,5.03
2022-09-30T10:56:09.876Z,5.80
2022-09-30T10:57:42.605Z,7.07
2022-09-30T10:59:30.434Z,4.53
2022-09-30T11:01:13.329Z,5.87
2022-09-30T11:02:54.027Z,7.03
2022-09-30T11:04:32.801Z,4.37
2022-09-30T11:06:07.411Z,5.07
2022-09-30T11:07:46.035Z,7.37
2022-09-30T11:09:22.968Z,4.23
2022-09-30T11:11:09.979Z,6.40
2022-09-30T11:12:48.079Z,4.10
2022-09-30T11:14:30.306Z,6.73
2022-09-30T11:16:14.920Z,4.77
2022-09-30T11:17:53.905Z,4.33
2022-09-30T11:19:32.185Z,3.37
2022-09-30T11:21:10.982Z,4.17
2022-09-30T11:22:52.358Z,4.93
2022-09-30T11:24:30.446Z,5.70
2022-09-30T11:26:11.808Z,4.23
2022-09-30T11:27:56.731Z,3.33
2022-09-30T11:29:44.960Z,3.30
2022-09-30T11:31:27.937Z,5.50
2022-09-30T11:33:17.936Z,4.50
2022-09-30T11:35:00.191Z,5.40
2022-09-30T11:36:42.844Z,3.00
2022-09-30T11:38:29.809Z,4.20
2022-09-30T11:40:27.440Z,2.87
2022-09-30T11:42:08.654Z,3.23
2022-09-30T11:43:52.283Z,4.03
2022-09-30T11:45:38.016Z,3.77
2022-09-30T11:47:41.977Z,3.67
2022-09-30T11:49:39.252Z,3.17
2022-09-30T11:51:23.728Z,2.80
2022-09-30T11:53:11.296Z,3.57
2022-09-30T11:55:06.277Z,2.87
2022-09-30T11:56:47.992Z,3.27
2022-09-30T11:58:53.502Z,3.50
2022-09-30T12:00:19.647Z,3.23
2022-09-30T12:01:56.062Z,2.30
2022-09-30T12:03:35.719Z,2.17
2022-09-30T12:05:12.820Z,2.00
2022-09-30T12:06:51.417Z,2.20
2022-09-30T12:08:30.348Z,6.73
2022-09-30T12:10:08.728Z,3.27
2022-09-30T12:11:45.885Z,2.33
2022-09-30T12:13:23.795Z,2.57
2022-09-30T12:15:00.633Z,3.10
2022-09-30T12:16:35.668Z,4.47
2022-09-30T12:18:14.904Z,3.00
2022-09-30T12:19:53.140Z,3.80
2022-09-30T12:21:33.906Z,2.67
2022-09-30T12:23:17.624Z,4.50
2022-09-30T12:24:50.382Z,4.87
2022-09-30T12:26:23.364Z,6.43
2022-09-30T12:28:23.466Z,4.27
2022-09-30T12:30:17.561Z,4.37
2022-09-30T12:32:09.417Z,3.17
2022-09-30T12:33:59.993Z,6.27
2022-09-30T12:35:49.817Z,4.13
2022-09-30T12:37:37.769Z,2.63
2022-09-30T12:39:51.959Z,3.07
2022-09-30T12:41:36.907Z,3.27
2022-09-30T12:43:47.982Z,2.73
2022-09-30T12:45:40.395Z,3.33
2022-09-30T12:47:38.183Z,4.67
2022-09-30T12:49:20.013Z,2.40
2022-09-30T12:50:57.800Z,2.47
2022-09-30T12:52:34.227Z,4.07
2022-09-30T12:54:14.976Z,4.63
2022-09-30T12:55:47.922Z,3.03
2022-09-30T12:57:26.435Z,2.73
2022-09-30T12:59:00.508Z,3.80
2022-09-30T13:00:37.654Z,2.20
2022-09-30T13:02:30.243Z,2.50
2022-09-30T13:04:31.895Z,4.00
2022-09-30T13:06:06.730Z,3.57
2022-09-30T13:08:25.239Z,2.90
2022-09-30T13:10:01.809Z,7.13
2022-09-30T13:11:37.691Z,2.80
2022-09-30T13:13:23.716Z,2.43
2022-09-30T13:15:23.889Z,2.80
2022-09-30T13:17:19.981Z,2.80
2022-09-30T13:19:02.757Z,3.63
2022-09-30T13:20:52.279Z,5.77
2022-09-30T13:22:59.739Z,2.30
2022-09-30T13:25:11.626Z,2.50
2022-09-30T13:26:49.535Z,3.33
2022-09-30T13:28:32.003Z,6.63
2022-09-30T13:30:38.289Z,3.43
2022-09-30T13:32:11.462Z,4.97
2022-09-30T13:33:47.372Z,5.20
2022-09-30T13:35:32.813Z,3.17
2022-09-30T13:37:06.644Z,2.37
2022-09-30T13:38:41.379Z,4.67
2022-09-30T13:40:49.707Z,3.73
2022-09-30T13:42:26.817Z,3.03
2022-09-30T13:44:10.208Z,3.63
2022-09-30T13:45:44.475Z,2.43
2022-09-30T13:47:27.088Z,2.73
2022-09-30T13:49:04.542Z,3.43
2022-09-30T13:50:46.726Z,2.83
2022-09-30T13:52:25.418Z,3.53
2022-09-30T13:54:06.242Z,1.90
2022-09-30T13:55:45.154Z,2.77
2022-09-30T13:57:21.680Z,3.63
2022-09-30T13:59:24.046Z,2.67
2022-09-30T14:01:04.176Z,6.50
2022-09-30T14:03:03.790Z,2.03
2022-09-30T14:05:05.702Z,2.83
2022-09-30T14:06:48.230Z,2.50
2022-09-30T14:08:43.579Z,2.30
2022-09-30T14:10:40.025Z,3.63
2022-09-30T14:12:39.526Z,2.10
2022-09-30T14:14:39.057Z,3.10
2022-09-30T14:16:36.774Z,2.70
2022-09-30T14:18:42.439Z,3.50
2022-09-30T14:20:27.526Z,3.57
2022-09-30T14:22:04.432Z,2.60
2022-09-30T14:23:37.621Z,2.50
2022-09-30T14:25:15.765Z,3.53
2022-09-30T14:27:06.344Z,7.90
2022-09-30T14:28:45.045Z,3.97
2022-09-30T14:30:21.588Z,2.43
2022-09-30T14:31:55.287Z,3.33
2022-09-30T14:33:31.410Z,1.83
2022-09-30T14:35:08.617Z,3.33
2022-09-30T14:36:42.358Z,2.77
2022-09-30T14:38:19.939Z,3.20
2022-09-30T14:39:52.739Z,2.17
2022-09-30T14:41:28.277Z,2.33
2022-09-30T14:43:04.981Z,2.40
2022-09-30T14:44:39.466Z,4.03
2022-09-30T14:46:31.102Z,1.57
2022-09-30T14:48:09.047Z,3.50
2022-09-30T14:49:41.853Z,1.60
2022-09-30T14:51:21.437Z,2.57
2022-09-30T14:52:58.622Z,3.13
2022-09-30T14:54:33.234Z,1.80
2022-09-30T14:56:20.665Z,1.63
2022-09-30T14:57:54.730Z,2.07
2022-09-30T14:59:31.706Z,1.63
2022-09-30T15:01:08.529Z,1.60
2022-09-30T15:02:44.281Z,3.07
2022-09-30T15:04:20.665Z,2.27
2022-09-30T15:05:53.490Z,1.93
2022-09-30T15:07:26.212Z,2.53
2022-09-30T15:09:04.727Z,2.13
2022-09-30T15:10:37.949Z,3.00
2022-09-30T15:12:13.828Z,2.80
2022-09-30T15:13:46.810Z,2.00
2022-09-30T15:15:35.086Z,3.00
2022-09-30T15:17:19.330Z,6.53
2022-09-30T15:18:53.698Z,5.07
2022-09-30T15:20:30.821Z,4.23
2022-09-30T15:22:06.019Z,7.90
2022-09-30T15:23:42.170Z,6.80
2022-09-30T15:25:16.119Z,3.57
2022-09-30T15:26:49.961Z,6.63
2022-09-30T15:28:22.913Z,3.00
2022-09-30T15:29:56.559Z,4.97
2022-09-30T15:31:33.264Z,4.77
2022-09-30T15:33:07.416Z,2.87
2022-09-30T15:34:40.565Z,4.07
2022-09-30T15:36:17.980Z,3.70
2022-09-30T15:37:51.715Z,4.60
2022-09-30T15:39:47.642Z,3.53
2022-09-30T15:41:19.439Z,4.80
2022-09-30T15:43:01.352Z,3.83
2022-09-30T15:44:39.620Z,6.33
2022-09-30T15:46:33.666Z,3.43
2022-09-30T15:48:08.878Z,3.13
2022-09-30T15:49:49.813Z,3.57
2022-09-30T15:51:32.184Z,2.23
2022-09-30T15:53:06.429Z,4.57
2022-09-30T15:54:39.129Z,3.33
2022-09-30T15:56:17.819Z,2.20
2022-09-30T15:57:51.493Z,2.87
2022-09-30T15:59:24.733Z,3.60
2022-09-30T16:01:13.958Z,3.23
2022-09-30T16:02:48.470Z,3.43
2022-09-30T16:04:26.264Z,4.47
2022-09-30T16:06:17.260Z,3.33
2022-09-30T16:07:50.395Z,2.90
2022-09-30T16:09:28.943Z,4.73
2022-09-30T16:11:05.281Z,4.33
2022-09-30T16:12:49.208Z,3.87
2022-09-30T16:14:26.830Z,2.67
2022-09-30T16:16:01.869Z,4.30
2022-09-30T16:17:37.785Z,3.37
2022-09-30T16:19:18.923Z,3.37
2022-09-30T16:20:59.166Z,2.50
2022-09-30T16:22:37.653Z,3.43
2022-09-30T16:24:45.305Z,3.27
2022-09-30T16:26:28.195Z,2.20
2022-09-30T16:28:03.010Z,2.63
2022-09-30T16:29:34.880Z,2.40
2022-09-30T16:31:08.131Z,5.23
2022-09-30T16:32:43.754Z,2.50
2022-09-30T16:34:23.839Z,2.40
2022-09-30T16:35:56.553Z,2.30
2022-09-30T16:37:29.300Z,4.80
2022-09-30T16:39:02.123Z,3.00
2022-09-30T16:40:38.043Z,2.47
2022-09-30T16:42:13.812Z,2.30
2022-09-30T16:43:46.945Z,5.70
2022-09-30T16:45:19.810Z,2.30
2022-09-30T16:46:52.573Z,2.57
2022-09-30T16:48:26.417Z,4.33
2022-09-30T16:50:00.759Z,4.17
2022-09-30T16:51:33.736Z,2.17
2022-09-30T16:53:07.065Z,2.57
2022-09-30T16:54:40.392Z,4.03
2022-09-30T16:56:16.890Z,2.17
2022-09-30T16:57:50.376Z,2.07
2022-09-30T16:59:23.991Z,5.23
2022-09-30T17:00:57.774Z,2.60
2022-09-30T17:02:30.702Z,5.40
2022-09-30T17:04:04.336Z,6.33
2022-09-30T17:05:41.929Z,4.53
2022-09-30T17:07:14.936Z,3.77
2022-09-30T17:08:50.048Z,5.40
2022-09-30T17:10:25.270Z,4.10
2022-09-30T17:11:58.604Z,4.00
2022-09-30T17:13:31.549Z,3.83
2022-09-30T17:15:03.574Z,3.20
2022-09-30T17:16:37.029Z,3.17
2022-09-30T17:18:10.973Z,4.03
2022-09-30T17:19:43.682Z,3.20
2022-09-30T17:21:20.010Z,5.07
2022-09-30T17:22:52.825Z,3.43
2022-09-30T17:24:25.577Z,4.57
2022-09-30T17:25:58.481Z,3.60
2022-09-30T17:27:31.210Z,5.00
2022-09-30T17:29:21.143Z,4.53
2022-09-30T17:30:56.991Z,3.30
2022-09-30T17:32:29.840Z,3.00
2022-09-30T17:34:07.949Z,2.60
2022-09-30T17:35:41.591Z,3.47
2022-09-30T17:37:14.846Z,2.60
2022-09-30T17:38:47.572Z,2.60
2022-09-30T17:40:41.259Z,5.67
2022-09-30T17:42:32.491Z,4.27
2022-09-30T17:44:05.242Z,2.80
2022-09-30T17:45:39.771Z,3.80
2022-09-30T17:47:12.670Z,5.03
2022-09-30T17:48:46.442Z,4.20
2022-09-30T17:50:21.931Z,3.10
2022-09-30T17:51:55.414Z,3.97
2022-09-30T17:53:30.821Z,3.90
2022-09-30T17:55:03.849Z,3.63
2022-09-30T17:56:37.736Z,3.33
2022-09-30T17:58:11.599Z,3.67
2022-09-30T17:59:46.491Z,3.77
2022-09-30T18:01:21.788Z,6.17
2022-09-30T18:02:55.237Z,6.23
2022-09-30T18:04:28.600Z,4.40
2022-09-30T18:06:01.549Z,3.33
2022-09-30T18:07:34.313Z,5.40
2022-09-30T18:09:08.687Z,4.37
2022-09-30T18:10:41.774Z,4.27
2022-09-30T18:12:14.498Z,6.57
2022-09-30T18:13:52.882Z,5.27
2022-09-30T18:15:26.998Z,4.37
2022-09-30T18:16:59.849Z,4.97
2022-09-30T18:18:34.478Z,4.03
2022-09-30T18:20:08.579Z,3.40
2022-09-30T18:21:41.460Z,2.83
2022-09-30T18:23:16.369Z,4.10
2022-09-30T18:25:08.346Z,5.17
2022-09-30T18:26:41.219Z,6.00
2022-09-30T18:28:14.418Z,6.00
2022-09-30T18:29:47.462Z,3.77
2022-09-30T18:31:28.269Z,3.70
2022-09-30T18:33:01.430Z,4.90
2022-09-30T18:34:34.467Z,2.93
2022-09-30T18:36:07.737Z,3.63
2022-09-30T18:37:42.289Z,3.20
2022-09-30T18:39:15.095Z,3.20
2022-09-30T18:40:50.072Z,4.80
2022-09-30T18:42:22.774Z,2.87
2022-09-30T18:43:59.595Z,3.87
2022-09-30T18:45:34.679Z,3.10
2022-09-30T18:47:07.445Z,2.73
2022-09-30T18:48:40.597Z,2.77
2022-09-30T18:50:17.812Z,3.17
2022-09-30T18:51:50.528Z,4.27
2022-09-30T18:53:24.135Z,4.23
2022-09-30T18:54:56.857Z,3.10
2022-09-30T18:56:33.066Z,3.43
2022-09-30T18:58:05.809Z,5.17
2022-09-30T18:59:38.534Z,2.90
2022-09-30T19:01:11.338Z,3.40
2022-09-30T19:02:44.724Z,3.07
2022-09-30T19:04:17.713Z,2.83
2022-09-30T19:05:50.429Z,3.07
2022-09-30T19:07:23.685Z,2.60
2022-09-30T19:08:56.630Z,2.50
2022-09-30T19:10:29.662Z,3.07
2022-09-30T19:12:04.423Z,3.80
2022-09-30T19:13:36.347Z,3.87
2022-09-30T19:15:12.015Z,2.67
2022-09-30T19:16:45.904Z,4.33
2022-09-30T19:18:18.665Z,3.50
2022-09-30T19:19:51.586Z,5.00
2022-09-30T19:21:24.297Z,2.63
2022-09-30T19:22:57.007Z,2.87
2022-09-30T19:24:29.717Z,2.80
2022-09-30T19:26:02.855Z,2.73
2022-09-30T19:27:38.240Z,2.50
2022-09-30T19:29:11.799Z,5.17
2022-09-30T19:30:45.172Z,3.00
2022-09-30T19:32:18.601Z,2.70
2022-09-30T19:33:56.886Z,3.10
2022-09-30T19:35:39.662Z,2.47
2022-09-30T19:37:25.090Z,2.50
2022-09-30T19:39:11.452Z,3.47
2022-09-30T19:40:45.278Z,2.90
2022-09-30T19:42:18.252Z,4.43
2022-09-30T19:43:52.409Z,3.97
2022-09-30T19:45:26.389Z,4.53
2022-09-30T19:46:59.478Z,5.23
2022-09-30T19:48:35.499Z,3.17
2022-09-30T19:50:08.862Z,3.97
2022-09-30T19:51:41.581Z,4.87
2022-09-30T19:53:27.495Z,4.07
2022-09-30T19:55:14.683Z,4.10
2022-09-30T19:56:49.031Z,5.83
2022-09-30T19:58:21.956Z,6.83
2022-09-30T19:59:56.022Z,5.27
2022-09-30T20:01:30.964Z,5.70
2022-09-30T20:03:04.114Z,3.30
2022-09-30T20:04:36.830Z,2.90
2022-09-30T20:06:12.848Z,3.77
2022-09-30T20:07:45.627Z,3.20
2022-09-30T20:09:18.356Z,5.17
2022-09-30T20:10:51.063Z,4.07
2022-09-30T20:12:23.956Z,5.53
2022-09-30T20:14:11.643Z,5.60
2022-09-30T20:15:51.505Z,5.03
2022-09-30T20:17:23.524Z,3.63
2022-09-30T20:18:56.284Z,3.77
2022-09-30T20:20:42.660Z,4.37
2022-09-30T20:22:15.378Z,7.13
2022-09-30T20:23:50.454Z,7.47
2022-09-30T20:25:23.179Z,7.53
2022-09-30T20:26:55.895Z,4.80
2022-09-30T20:28:28.701Z,3.20
2022-09-30T20:30:01.567Z,3.43
2022-09-30T20:31:36.613Z,4.87
2022-09-30T20:33:09.560Z,3.20
2022-09-30T20:34:42.868Z,2.83
2022-09-30T20:36:16.046Z,2.93
2022-09-30T20:37:48.793Z,5.87
2022-09-30T20:39:21.482Z,5.63
2022-09-30T20:40:58.264Z,3.13
2022-09-30T20:42:30.801Z,3.23
2022-09-30T20:44:03.878Z,4.13
2022-09-30T20:45:40.676Z,7.30
2022-09-30T20:47:14.784Z,4.20
2022-09-30T20:48:47.609Z,2.83
2022-09-30T20:50:34.886Z,3.13
2022-09-30T20:52:07.856Z,3.80
2022-09-30T20:53:40.612Z,5.47
2022-09-30T20:55:13.365Z,4.83
2022-09-30T20:57:06.255Z,7.33
2022-09-30T20:58:39.915Z,8.63
2022-09-30T21:00:16.279Z,7.77
2022-09-30T21:01:49.045Z,4.50
2022-09-30T21:03:23.173Z,5.43
2022-09-30T21:04:57.434Z,4.53
2022-09-30T21:06:30.997Z,3.87
2022-09-30T21:08:03.877Z,3.37
2022-09-30T21:09:36.606Z,4.83
2022-09-30T21:11:09.759Z,6.73
2022-09-30T21:12:43.168Z,6.00
2022-09-30T21:14:18.464Z,5.13
2022-09-30T21:16:00.578Z,5.10
2022-09-30T21:17:33.336Z,3.60
2022-09-30T21:19:07.408Z,3.60
2022-09-30T21:20:40.106Z,3.60
2022-09-30T21:22:12.816Z,2.80
2022-09-30T21:23:45.586Z,3.73
2022-09-30T21:25:18.399Z,3.03
2022-09-30T21:26:50.145Z,3.17
2022-09-30T21:28:22.971Z,3.10
2022-09-30T21:29:55.706Z,3.77
2022-09-30T21:31:28.783Z,2.70
2022-09-30T21:33:01.569Z,2.90
2022-09-30T21:34:35.664Z,2.80
2022-09-30T21:36:07.449Z,2.83